createdAt,value
2022-09-11T00:00:44.736Z,95.66
2022-09-11T00:02:45.943Z,95.71
2022-09-11T00:04:47.644Z,95.66
2022-09-11T00:06:49.379Z,95.78
2022-09-11T00:08:50.567Z,95.72
2022-09-11T00:10:52.093Z,95.59
2022-09-11T00:12:53.858Z,95.55
2022-09-11T00:14:55.333Z,95.55
2022-09-11T00:18:57.755Z,95.65
2022-09-11T00:20:59.279Z,95.64
2022-09-11T00:23:00.403Z,95.74
2022-09-11T00:25:01.520Z,95.87
2022-09-11T00:27:03.215Z,95.95
2022-09-11T00:29:04.840Z,96
2022-09-11T00:31:06.499Z,95.97
2022-09-11T00:33:07.401Z,95.8
2022-09-11T00:35:09.061Z,95.51
2022-09-11T00:37:10.275Z,95.6
2022-09-11T00:39:12.086Z,95.72
2022-09-11T00:41:13.584Z,95.81
2022-09-11T00:43:15.115Z,95.7
2022-09-11T00:45:16.694Z,95.76
2022-09-11T00:47:18.077Z,95.74
2022-09-11T00:51:20.940Z,95.91
2022-09-11T00:53:22.103Z,95.9
2022-09-11T00:57:24.120Z,95.97
2022-09-11T01:01:27.526Z,96
2022-09-11T01:03:28.963Z,95.99
2022-09-11T01:05:29.850Z,96.07
2022-09-11T01:07:31.676Z,95.96
2022-09-11T01:09:33.543Z,95.83
2022-09-11T01:11:34.895Z,95.92
2022-09-11T01:13:36.235Z,95.97
2022-09-11T01:15:37.870Z,95.89
2022-09-11T01:17:39.612Z,95.78
2022-09-11T01:19:40.966Z,95.78
2022-09-11T01:21:41.957Z,95.89
2022-09-11T01:23:43.675Z,96.01
2022-09-11T01:25:44.855Z,96.01
2022-09-11T01:27:54.400Z,95.92
2022-09-11T01:29:47.915Z,95.84
2022-09-11T01:31:49.283Z,95.74
2022-09-11T01:33:50.486Z,95.71
2022-09-11T01:35:51.547Z,95.42
2022-09-11T01:37:53.371Z,95.28
2022-09-11T01:39:55.200Z,95.45
2022-09-11T01:41:56.675Z,95.61
2022-09-11T01:43:57.983Z,95.27
2022-09-11T01:45:59.316Z,95.37
2022-09-11T01:50:01.978Z,95.6
2022-09-11T01:52:03.605Z,95.66
2022-09-11T01:54:05.311Z,95.74
2022-09-11T01:56:07.161Z,95.73
2022-09-11T02:00:10.245Z,95.24
2022-09-11T02:02:11.582Z,95.24
2022-09-11T02:04:13.016Z,95.36
2022-09-11T02:06:14.672Z,95.1
2022-09-11T02:08:15.700Z,95.3
2022-09-11T02:10:16.961Z,95.41
2022-09-11T02:12:18.605Z,95.39
2022-09-11T02:14:20.147Z,95.36
2022-09-11T02:16:21.925Z,95.18
2022-09-11T02:18:23.289Z,95.11
2022-09-11T02:20:25.067Z,95.11
2022-09-11T02:22:26.656Z,95.13
2022-09-11T02:24:28.207Z,95.38
2022-09-11T02:28:30.905Z,95.58
2022-09-11T02:30:32.013Z,95.58
2022-09-11T02:32:33.833Z,95.65
2022-09-11T02:34:35.317Z,95.73
2022-09-11T02:36:37.063Z,95.75
2022-09-11T02:38:38.394Z,95.91
2022-09-11T02:42:40.740Z,95.99
2022-09-11T02:44:42.184Z,96.06
2022-09-11T02:46:43.823Z,96.12
2022-09-11T02:48:45.127Z,96.21
2022-09-11T02:50:46.469Z,96.25
2022-09-11T02:52:48.179Z,96.27
2022-09-11T02:54:49.850Z,96.27
2022-09-11T02:56:51.510Z,96.18
2022-09-11T02:58:52.656Z,96.2
2022-09-11T03:00:54.550Z,96.28
2022-09-11T03:02:55.718Z,96.25
2022-09-11T03:04:57.229Z,96.23
2022-09-11T03:06:58.820Z,96.28
2022-09-11T03:09:00.479Z,96.28
2022-09-11T03:11:01.394Z,96.28
2022-09-11T03:13:03.246Z,96.33
2022-09-11T03:15:04.400Z,96.35
2022-09-11T03:17:05.447Z,96.39
2022-09-11T03:19:06.675Z,96.38
2022-09-11T03:21:08.273Z,96.4
2022-09-11T03:25:11.582Z,96.26
2022-09-11T03:27:13.192Z,96.19
2022-09-11T03:29:14.352Z,96.16
2022-09-11T03:31:15.976Z,96.2
2022-09-11T03:33:17.009Z,96.23
2022-09-11T03:35:18.821Z,96.24
2022-09-11T03:37:20.497Z,96.29
2022-09-11T03:39:21.589Z,96.31
2022-09-11T03:40:05.394Z,96.29
2022-09-11T03:42:06.375Z,96.42
2022-09-11T03:44:07.859Z,96.35
2022-09-11T03:46:08.831Z,96.21
2022-09-11T03:48:10.146Z,96.19
2022-09-11T03:50:11.500Z,96.18
2022-09-11T03:52:12.657Z,96.22
2022-09-11T03:54:14.067Z,96.26
2022-09-11T03:56:15.422Z,96.23
2022-09-11T03:58:17.182Z,96.25
2022-09-11T04:00:18.754Z,96.28
2022-09-11T04:02:20.389Z,96.33
2022-09-11T04:04:21.860Z,96.37
2022-09-11T04:06:23.508Z,96.41
2022-09-11T04:08:25.223Z,96.36
2022-09-11T04:10:26.601Z,96.32
2022-09-11T04:12:28.480Z,96.33
2022-09-11T04:14:29.904Z,96.2
2022-09-11T04:16:31.410Z,95.85
2022-09-11T04:18:32.431Z,95.81
2022-09-11T04:22:34.316Z,95.68
2022-09-11T04:24:36.166Z,95.28
2022-09-11T04:26:37.163Z,95.21
2022-09-11T04:28:38.454Z,95.24
2022-09-11T04:30:39.943Z,95.22
2022-09-11T04:32:41.637Z,95.29
2022-09-11T04:34:42.759Z,95.28
2022-09-11T04:36:44.199Z,95.36
2022-09-11T04:38:45.287Z,95.39
2022-09-11T04:40:46.204Z,95.41
2022-09-11T04:42:47.466Z,95.39
2022-09-11T04:44:48.762Z,95.4
2022-09-11T04:46:50.100Z,95.48
2022-09-11T04:48:51.363Z,95.31
2022-09-11T04:50:52.690Z,95.35
2022-09-11T04:52:53.969Z,95.4
2022-09-11T04:54:55.395Z,95.52
2022-09-11T04:56:56.650Z,95.51
2022-09-11T04:58:57.859Z,95.43
2022-09-11T05:00:58.923Z,95.42
2022-09-11T05:03:00.670Z,95.48
2022-09-11T05:05:02.261Z,95.41
2022-09-11T05:07:03.795Z,95.41
2022-09-11T05:09:05.311Z,95.51
2022-09-11T05:11:06.526Z,95.49
2022-09-11T05:13:08.035Z,95.54
2022-09-11T05:15:09.020Z,95.43
2022-09-11T05:17:10.140Z,95.48
2022-09-11T05:19:11.677Z,95.51
2022-09-11T05:21:13.070Z,95.51
2022-09-11T05:23:14.131Z,95.58
2022-09-11T05:25:15.163Z,95.51
2022-09-11T05:27:16.520Z,95.49
2022-09-11T05:29:17.918Z,95.53
2022-09-11T05:31:19.448Z,95.55
2022-09-11T05:33:20.710Z,95.53
2022-09-11T05:35:22.299Z,95.58
2022-09-11T05:37:23.340Z,95.46
2022-09-11T05:39:25.150Z,95.52
2022-09-11T05:43:28.595Z,95.58
2022-09-11T05:45:29.558Z,95.42
2022-09-11T05:47:31.327Z,95.41
2022-09-11T05:49:33.093Z,95.39
2022-09-11T05:51:34.893Z,95.35
2022-09-11T05:53:36.200Z,95.35
2022-09-11T05:55:37.471Z,95.33
2022-09-11T05:57:38.455Z,95.06
2022-09-11T05:59:39.639Z,95.16
2022-09-11T06:01:41.248Z,94.93
2022-09-11T06:03:42.713Z,95
2022-09-11T06:05:44.233Z,95.09
2022-09-11T06:07:45.125Z,95.01
2022-09-11T06:09:46.480Z,94.93
2022-09-11T06:11:47.418Z,94.32
2022-09-11T06:13:48.659Z,94.2
2022-09-11T06:15:49.679Z,94.42
2022-09-11T06:17:50.663Z,93.61
2022-09-11T06:19:52.440Z,93.71
2022-09-11T06:21:53.419Z,93.83
2022-09-11T06:25:56.921Z,93.35
2022-09-11T06:27:58.514Z,93.5
2022-09-11T06:29:59.989Z,93.14
2022-09-11T06:32:01.188Z,93.14
2022-09-11T06:34:02.942Z,93.22
2022-09-11T06:36:04.112Z,93.39
2022-09-11T06:38:05.385Z,92.85
2022-09-11T06:40:06.348Z,92.94
2022-09-11T06:42:08.026Z,93.01
2022-09-11T06:44:09.453Z,93.19
2022-09-11T06:46:11.243Z,92.92
2022-09-11T06:48:12.545Z,93.03
2022-09-11T06:50:13.453Z,93.06
2022-09-11T06:52:14.949Z,92.68
2022-09-11T06:54:16.564Z,92.66
2022-09-11T06:56:17.795Z,92.24
2022-09-11T06:58:18.919Z,92.1
2022-09-11T07:00:20.335Z,92.54
2022-09-11T07:02:21.305Z,92.53
2022-09-11T07:04:22.497Z,92.57
2022-09-11T07:06:24.211Z,92.41
2022-09-11T07:08:25.257Z,92.37
2022-09-11T07:10:26.925Z,92.41
2022-09-11T07:12:27.838Z,92.19
2022-09-11T07:14:29.666Z,92.18
2022-09-11T07:16:31.375Z,92.28
2022-09-11T07:18:32.470Z,92.41
2022-09-11T07:20:33.871Z,92.02
2022-09-11T07:24:37.008Z,92.12
2022-09-11T07:26:37.914Z,91.66
2022-09-11T07:28:39.162Z,90.89
2022-09-11T07:30:40.085Z,91.15
2022-09-11T07:32:41.098Z,90.26
2022-09-11T07:34:42.723Z,90.74
2022-09-11T07:36:44.474Z,90.06
2022-09-11T07:38:45.843Z,89.65
2022-09-11T07:40:47.116Z,89.62
2022-09-11T07:42:48.617Z,88.47
2022-09-11T07:44:50.141Z,88.22
2022-09-11T07:46:51.460Z,87.82
2022-09-11T07:48:53.160Z,87.89
2022-09-11T07:52:56.584Z,88.12
2022-09-11T07:54:57.501Z,88.4
2022-09-11T07:56:59.040Z,88.66
2022-09-11T07:59:00.798Z,89.07
2022-09-11T08:01:01.930Z,88.65
2022-09-11T08:03:03.570Z,88.72
2022-09-11T08:05:04.607Z,88.42
2022-09-11T08:07:05.758Z,88.91
2022-09-11T08:09:07.225Z,88.77
2022-09-11T08:11:08.629Z,88.76
2022-09-11T08:13:09.799Z,88.7
2022-09-11T08:15:11.270Z,88.59
2022-09-11T08:17:12.772Z,87.72
2022-09-11T08:19:14.202Z,87.41
2022-09-11T08:21:15.609Z,87.67
2022-09-11T08:23:16.984Z,86.79
2022-09-11T08:25:18.748Z,86.58
2022-09-11T08:27:20.423Z,86.67
2022-09-11T08:29:21.641Z,85.16
2022-09-11T08:31:23.201Z,85.27
2022-09-11T08:35:25.381Z,85.36
2022-09-11T08:37:26.481Z,83.9
2022-09-11T08:39:27.856Z,83.62
2022-09-11T08:41:29.356Z,83.01
2022-09-11T08:43:30.519Z,83.38
2022-09-11T08:45:31.859Z,81.63
2022-09-11T08:47:33.447Z,82.8
2022-09-11T08:49:34.950Z,82.79
2022-09-11T08:51:36.380Z,83
2022-09-11T08:53:38.015Z,83.43
2022-09-11T08:55:39.417Z,83.83
2022-09-11T08:57:40.301Z,82.91
2022-09-11T08:59:41.444Z,82.46
2022-09-11T09:01:42.403Z,82.44
2022-09-11T09:03:43.942Z,82.36
2022-09-11T09:07:46.922Z,82.44
2022-09-11T09:09:47.927Z,82.92
2022-09-11T09:11:49.105Z,83.23
2022-09-11T09:13:50.560Z,82.88
2022-09-11T09:15:51.979Z,82.9
2022-09-11T09:17:53.323Z,82.78
2022-09-11T09:19:55.020Z,81.19
2022-09-11T09:21:56.152Z,81.05
2022-09-11T09:23:57.321Z,81.14
2022-09-11T09:25:58.914Z,78.69
2022-09-11T09:27:59.859Z,80.54
2022-09-11T09:30:01.062Z,80.09
2022-09-11T09:32:02.536Z,79.76
2022-09-11T09:34:03.956Z,77.56
2022-09-11T09:36:05.668Z,78.31
2022-09-11T09:38:06.440Z,76.4
2022-09-11T09:40:16.686Z,75.81
2022-09-11T09:42:08.855Z,73
2022-09-11T09:46:11.784Z,75.45
2022-09-11T09:48:13.327Z,76.92
2022-09-11T09:50:14.919Z,76.65
2022-09-11T09:52:16.533Z,76.42
2022-09-11T09:54:18.281Z,77.65
2022-09-11T09:56:19.740Z,78.54
2022-09-11T09:58:21.244Z,78.91
2022-09-11T10:00:22.539Z,79.27
2022-09-11T10:02:24.461Z,79.63
2022-09-11T10:04:25.274Z,79.47
2022-09-11T10:06:26.297Z,78.91
2022-09-11T10:08:27.671Z,77.51
2022-09-11T10:10:29.275Z,78.27
2022-09-11T10:12:30.887Z,78.12
2022-09-11T10:14:50.216Z,78.55
2022-09-11T10:18:34.657Z,78.12
2022-09-11T10:20:36.226Z,78.13
2022-09-11T10:22:37.733Z,78.47
2022-09-11T10:24:38.784Z,78.51
2022-09-11T10:25:22.479Z,78.7
2022-09-11T10:27:26.181Z,78.19
2022-09-11T10:29:26.057Z,74.52
2022-09-11T10:31:27.217Z,75.09
2022-09-11T10:33:28.101Z,68.52
2022-09-11T10:35:29.623Z,70.77
2022-09-11T10:39:32.659Z,72.43
2022-09-11T10:41:33.674Z,72.74
2022-09-11T10:43:34.697Z,72.75
2022-09-11T10:45:36.239Z,73.03
2022-09-11T10:47:37.472Z,72.63
2022-09-11T10:49:38.750Z,72.65
2022-09-11T10:51:41.328Z,71.43
2022-09-11T10:53:41.119Z,69.58
2022-09-11T10:55:42.338Z,67.82
2022-09-11T10:57:43.580Z,66.52
2022-09-11T10:59:45.221Z,65.27
2022-09-11T11:03:47.693Z,66.96
2022-09-11T11:05:48.743Z,67.35
2022-09-11T11:07:50.441Z,66.52
2022-09-11T11:09:52.240Z,63.73
2022-09-11T11:11:53.752Z,65.93
2022-09-11T11:13:54.612Z,61.94
2022-09-11T11:15:55.408Z,61.68
2022-09-11T11:17:56.920Z,59.94
2022-09-11T11:19:58.652Z,62.21
2022-09-11T11:21:59.520Z,62.67
2022-09-11T11:24:00.803Z,61.46
2022-09-11T11:26:02.197Z,61.79
2022-09-11T11:28:03.536Z,59.99
2022-09-11T11:30:04.591Z,61.56
2022-09-11T11:32:05.747Z,62.02
2022-09-11T11:34:07.295Z,61.17
2022-09-11T11:36:08.904Z,60.28
2022-09-11T11:38:09.871Z,58.27
2022-09-11T11:40:11.206Z,57.98
2022-09-11T11:42:12.355Z,59.25
2022-09-11T11:44:14.066Z,56.47
2022-09-11T11:46:15.032Z,54.59
2022-09-11T11:48:16.286Z,52.95
2022-09-11T11:50:17.673Z,53.04
2022-09-11T11:52:19.014Z,51.65
2022-09-11T11:54:20.535Z,54.73
2022-09-11T11:56:21.751Z,54.87
2022-09-11T11:58:23.213Z,57.82
2022-09-11T12:00:24.094Z,58.12
2022-09-11T12:02:25.661Z,59
2022-09-11T12:04:26.607Z,58.89
2022-09-11T12:06:28.021Z,59.65
2022-09-11T12:08:29.667Z,61.05
2022-09-11T12:10:30.887Z,62.07
2022-09-11T12:12:32.185Z,59.59
2022-09-11T12:14:33.318Z,61.43
2022-09-11T12:16:34.323Z,60.82
2022-09-11T12:18:35.632Z,62.18
2022-09-11T12:20:37.004Z,62.48
2022-09-11T12:22:37.957Z,63.45
2022-09-11T12:24:38.918Z,63.08
2022-09-11T12:26:39.892Z,63.47
2022-09-11T12:28:41.610Z,63.68
2022-09-11T12:30:42.874Z,63.83
2022-09-11T12:34:45.042Z,66.18
2022-09-11T12:36:46.644Z,66.7
2022-09-11T12:38:48.394Z,67.69
2022-09-11T12:40:49.597Z,69.71
2022-09-11T12:42:50.881Z,67.79
2022-09-11T12:46:52.679Z,68.77
2022-09-11T12:49:11.626Z,67.73
2022-09-11T12:50:54.786Z,68.13
2022-09-11T12:52:56.438Z,67.78
2022-09-11T12:54:57.584Z,67.06
2022-09-11T12:56:59.151Z,67.67
2022-09-11T12:59:00.621Z,67.01
2022-09-11T13:01:02.535Z,65.79
2022-09-11T13:05:04.554Z,64.06
2022-09-11T13:07:05.982Z,63.33
2022-09-11T13:09:07.071Z,64.77
2022-09-11T13:11:08.590Z,63.43
2022-09-11T13:13:09.108Z,62.8
2022-09-11T13:15:10.287Z,63.21
2022-09-11T13:17:12.041Z,63.06
2022-09-11T13:19:13.143Z,60.87
2022-09-11T13:23:15.824Z,58.61
2022-09-11T13:25:16.821Z,56.94
2022-09-11T13:27:17.920Z,58.29
2022-09-11T13:29:19.490Z,58.23
2022-09-11T13:31:20.962Z,59.72
2022-09-11T13:35:23.711Z,60.79
2022-09-11T13:37:25.141Z,61.4
2022-09-11T13:39:26.099Z,60.89
2022-09-11T13:41:27.287Z,62.13
2022-09-11T13:43:28.198Z,62.22
2022-09-11T13:45:29.770Z,61.84
2022-09-11T13:47:30.680Z,63.34
2022-09-11T13:49:31.669Z,63.28
2022-09-11T13:51:33.024Z,61.87
2022-09-11T13:53:34.213Z,62.4
2022-09-11T13:55:35.475Z,62.98
2022-09-11T13:57:37.027Z,61.57
2022-09-11T13:59:37.901Z,59.74
2022-09-11T14:01:38.970Z,58.47
2022-09-11T14:03:40.479Z,58.66
2022-09-11T14:05:41.359Z,55.73
2022-09-11T14:07:42.478Z,57.81
2022-09-11T14:09:44.128Z,59.59
2022-09-11T14:11:45.023Z,58.97
2022-09-11T14:15:48.065Z,59.25
2022-09-11T14:17:49.258Z,61.48
2022-09-11T14:19:50.597Z,61.03
2022-09-11T14:21:51.774Z,61.97
2022-09-11T14:23:53.280Z,62.19
2022-09-11T14:25:54.216Z,62.32
2022-09-11T14:27:55.493Z,62.16
2022-09-11T14:29:56.732Z,63.45
2022-09-11T14:31:57.638Z,62.48
2022-09-11T14:33:59.954Z,62.77
2022-09-11T14:36:03.583Z,62.46
2022-09-11T14:38:02.190Z,62.94
2022-09-11T14:40:03.709Z,63.71
2022-09-11T14:42:04.877Z,63.68
2022-09-11T14:46:07.123Z,63.4
2022-09-11T14:48:08.760Z,62.11
2022-09-11T14:50:10.140Z,63.55
2022-09-11T14:52:11.809Z,59.99
2022-09-11T14:54:13.149Z,59.7
2022-09-11T14:56:14.339Z,58.34
2022-09-11T14:58:15.843Z,57.05
2022-09-11T15:00:16.936Z,57.44
2022-09-11T15:04:19.513Z,57.04
2022-09-11T15:06:20.929Z,57.77
2022-09-11T15:08:22.471Z,58.14
2022-09-11T15:10:23.801Z,57.75
2022-09-11T15:12:25.223Z,57.19
2022-09-11T15:14:45.011Z,57.49
2022-09-11T15:16:28.007Z,58.18
2022-09-11T15:18:29.679Z,57.99
2022-09-11T15:20:30.965Z,57.71
2022-09-11T15:22:32.166Z,57.53
2022-09-11T15:24:33.650Z,57.27
2022-09-11T15:26:34.860Z,55.79
2022-09-11T15:28:36.435Z,53.96
2022-09-11T15:30:37.779Z,56.36
2022-09-11T15:32:39.097Z,57.66
2022-09-11T15:34:39.902Z,56.75
2022-09-11T15:36:41.580Z,56.89
2022-09-11T15:38:42.864Z,57.52
2022-09-11T15:40:43.951Z,57.1
2022-09-11T15:42:44.917Z,56.85
2022-09-11T15:44:46.731Z,57.02
2022-09-11T15:46:48.167Z,56.8
2022-09-11T15:48:49.489Z,57.18
2022-09-11T15:50:50.608Z,58
2022-09-11T15:53:00.072Z,57.2
2022-09-11T15:56:54.999Z,58.18
2022-09-11T15:58:56.567Z,57.6
2022-09-11T16:00:57.960Z,57.5
2022-09-11T16:02:59.739Z,58.56
2022-09-11T16:05:00.754Z,57.75
2022-09-11T16:07:01.755Z,58.15
2022-09-11T16:09:03.402Z,57.92
2022-09-11T16:11:05.195Z,58.79
2022-09-11T16:13:06.784Z,58.01
2022-09-11T16:15:07.756Z,58.02
2022-09-11T16:17:08.928Z,57.57
2022-09-11T16:19:09.887Z,58.24
2022-09-11T16:21:11.566Z,58.57
2022-09-11T16:23:12.806Z,58.3
2022-09-11T16:25:13.751Z,58.6
2022-09-11T16:27:14.778Z,56.53
2022-09-11T16:29:16.128Z,58.26
2022-09-11T16:31:17.503Z,59.31
2022-09-11T16:35:19.764Z,58.62
2022-09-11T16:37:21.411Z,58.35
2022-09-11T16:39:22.479Z,57.35
2022-09-11T16:41:23.946Z,56.6
2022-09-11T16:45:26.757Z,58.02
2022-09-11T16:47:27.547Z,60.5
2022-09-11T16:49:28.478Z,61.79
2022-09-11T16:51:29.533Z,62.53
2022-09-11T16:55:31.841Z,63.16
2022-09-11T16:57:32.883Z,63.19
2022-09-11T16:59:34.000Z,64.03
2022-09-11T17:01:35.727Z,64.18
2022-09-11T17:03:41.341Z,65.22
2022-09-11T17:05:38.970Z,65.56
2022-09-11T17:07:40.301Z,65.81
2022-09-11T17:09:41.333Z,66.21
2022-09-11T17:11:42.562Z,67.18
2022-09-11T17:12:26.358Z,67.29
2022-09-11T17:14:28.085Z,67.63
2022-09-11T17:16:29.538Z,67.95
2022-09-11T17:18:30.962Z,68.47
2022-09-11T17:20:31.910Z,68.76
2022-09-11T17:22:32.849Z,69.32
2022-09-11T17:24:34.436Z,70.17
2022-09-11T17:26:35.509Z,71.35
2022-09-11T17:28:37.354Z,71.74
2022-09-11T17:30:38.341Z,72.37
2022-09-11T17:32:39.834Z,73.22
2022-09-11T17:34:41.258Z,73.1
2022-09-11T17:36:42.822Z,73.73
2022-09-11T17:38:44.148Z,73
2022-09-11T17:40:45.479Z,72.68
2022-09-11T17:42:47.052Z,72.1
2022-09-11T17:44:48.713Z,73.07
2022-09-11T17:46:49.978Z,73
2022-09-11T17:48:50.995Z,74.29
2022-09-11T17:50:52.379Z,76.1
2022-09-11T17:52:53.675Z,76.19
2022-09-11T17:54:54.717Z,77.26
2022-09-11T17:56:56.113Z,78.17
2022-09-11T17:58:57.039Z,78.04
2022-09-11T18:00:58.613Z,78.99
2022-09-11T18:03:00.062Z,79.26
2022-09-11T18:05:01.050Z,79.36
2022-09-11T18:07:02.899Z,79.42
2022-09-11T18:09:04.334Z,79.37
2022-09-11T18:11:05.765Z,79.86
2022-09-11T18:13:06.704Z,79.65
2022-09-11T18:15:08.589Z,79.77
2022-09-11T18:17:09.845Z,79.86
2022-09-11T18:21:12.293Z,79.63
2022-09-11T18:23:13.438Z,79.87
2022-09-11T18:25:14.530Z,80.72
2022-09-11T18:27:15.906Z,80.7
2022-09-11T18:31:18.308Z,82.79
2022-09-11T18:33:19.965Z,82.72
2022-09-11T18:35:20.844Z,82.06
2022-09-11T18:37:22.621Z,82.1
2022-09-11T18:39:23.618Z,81.98
2022-09-11T18:41:24.728Z,82.24
2022-09-11T18:43:26.198Z,82.51
2022-09-11T18:45:27.935Z,83.53
2022-09-11T18:47:28.867Z,83.27
2022-09-11T18:49:30.398Z,84.25
2022-09-11T18:51:31.830Z,84.68
2022-09-11T18:53:33.143Z,84.76
2022-09-11T18:55:34.990Z,85.08
2022-09-11T18:57:40.844Z,85.77
2022-09-11T18:59:37.583Z,85.92
2022-09-11T19:01:38.885Z,85.49
2022-09-11T19:03:40.325Z,85.41
2022-09-11T19:05:41.321Z,85.09
2022-09-11T19:07:42.488Z,85.27
2022-09-11T19:09:46.063Z,85.96
2022-09-11T19:11:45.409Z,86.65
2022-09-11T19:13:46.952Z,86.75
2022-09-11T19:15:48.670Z,86.97
2022-09-11T19:17:49.636Z,87.13
2022-09-11T19:21:52.713Z,87.42
2022-09-11T19:23:54.528Z,88.23
2022-09-11T19:25:56.069Z,88.27
2022-09-11T19:27:57.941Z,88.61
2022-09-11T19:30:00.371Z,89.23
2022-09-11T19:32:00.590Z,89.25
2022-09-11T19:34:01.985Z,89.15
2022-09-11T19:36:02.841Z,88.84
2022-09-11T19:38:03.962Z,88.51
2022-09-11T19:40:05.851Z,89.1
2022-09-11T19:42:06.757Z,89.56
2022-09-11T19:46:09.738Z,89.37
2022-09-11T19:48:11.517Z,90.07
2022-09-11T19:50:12.881Z,90.35
2022-09-11T19:52:14.444Z,91.3
2022-09-11T19:54:16.163Z,90.94
2022-09-11T19:56:17.283Z,91.7
2022-09-11T19:58:22.081Z,92.35
2022-09-11T20:00:20.399Z,92.26
2022-09-11T20:02:22.308Z,92.48
2022-09-11T20:04:23.416Z,92.76
2022-09-11T20:06:24.633Z,93.12
2022-09-11T20:08:25.874Z,93.23
2022-09-11T20:10:27.479Z,93.51
2022-09-11T20:12:28.864Z,93.73
2022-09-11T20:14:30.673Z,93.6
2022-09-11T20:16:31.781Z,93.48
2022-09-11T20:18:33.103Z,93.46
2022-09-11T20:20:34.844Z,93.28
2022-09-11T20:22:36.714Z,93.5
2022-09-11T20:24:38.230Z,93.67
2022-09-11T20:26:40.029Z,94.08
2022-09-11T20:28:41.816Z,94.47
2022-09-11T20:30:42.905Z,94.43
2022-09-11T20:32:44.492Z,94.36
2022-09-11T20:34:46.096Z,94.44
2022-09-11T20:36:47.562Z,94.61
2022-09-11T20:38:48.745Z,95.08
2022-09-11T20:40:49.990Z,95.26
2022-09-11T20:44:52.858Z,95.19
2022-09-11T20:46:53.907Z,94.84
2022-09-11T20:48:55.546Z,95.34
2022-09-11T20:50:56.480Z,95.19
2022-09-11T20:55:00.452Z,94.84
2022-09-11T20:57:00.640Z,94.78
2022-09-11T20:59:01.381Z,94.67
2022-09-11T21:01:03.193Z,94.6
2022-09-11T21:03:04.921Z,94.25
2022-09-11T21:05:06.253Z,94.03
2022-09-11T21:07:07.645Z,94.51
2022-09-11T21:09:09.415Z,94.56
2022-09-11T21:11:10.933Z,94.24
2022-09-11T21:13:12.716Z,94.19
2022-09-11T21:15:13.715Z,94.37
2022-09-11T21:17:14.773Z,94.85
2022-09-11T21:19:16.076Z,94.91
2022-09-11T21:21:17.536Z,95.22
2022-09-11T21:23:19.175Z,95.23
2022-09-11T21:25:20.148Z,95.18
2022-09-11T21:27:21.684Z,95.17
2022-09-11T21:29:23.287Z,95.07
2022-09-11T21:31:24.303Z,95
2022-09-11T21:33:25.381Z,94.88
2022-09-11T21:37:28.259Z,96.04
2022-09-11T21:39:30.113Z,96.05
2022-09-11T21:41:31.822Z,96.05
2022-09-11T21:43:33.237Z,96.09
2022-09-11T21:45:34.454Z,96.24
2022-09-11T21:47:35.573Z,96.2
2022-09-11T21:49:36.912Z,96.17
2022-09-11T21:51:38.297Z,96.26
2022-09-11T21:55:41.647Z,96.27
2022-09-11T21:57:42.654Z,96.23
2022-09-11T21:59:43.691Z,96.2
2022-09-11T22:01:45.246Z,96.11
2022-09-11T22:03:46.782Z,96.41
2022-09-11T22:05:48.274Z,96.8
2022-09-11T22:09:51.235Z,96.54
2022-09-11T22:11:53.382Z,96.72
2022-09-11T22:13:53.433Z,96.82
2022-09-11T22:15:54.683Z,97.13
2022-09-11T22:19:57.880Z,97.16
2022-09-11T22:21:59.527Z,97.24
2022-09-11T22:24:00.919Z,97.33
2022-09-11T22:26:02.182Z,97.36
2022-09-11T22:28:03.132Z,97.4
2022-09-11T22:30:04.094Z,97.5
2022-09-11T22:32:05.604Z,97.54
2022-09-11T22:34:06.805Z,97.55
2022-09-11T22:36:08.615Z,97.53
2022-09-11T22:38:10.146Z,97.5
2022-09-11T22:40:11.804Z,97.45
2022-09-11T22:42:12.869Z,97.44
2022-09-11T22:44:14.036Z,97.46
2022-09-11T22:46:15.962Z,97.56
2022-09-11T22:48:17.785Z,97.61
2022-09-11T22:50:18.986Z,97.51
2022-09-11T22:52:27.955Z,97.71
2022-09-11T22:54:21.638Z,97.75
2022-09-11T22:56:23.015Z,97.81
2022-09-11T22:58:24.354Z,97.88
2022-09-11T23:00:26.111Z,97.8
2022-09-11T23:02:27.654Z,97.81
2022-09-11T23:04:28.937Z,97.79
2022-09-11T23:06:29.927Z,97.81
2022-09-11T23:08:33.771Z,97.8
2022-09-11T23:10:32.486Z,97.79
2022-09-11T23:12:34.326Z,97.76
2022-09-11T23:14:35.405Z,97.75
2022-09-11T23:18:37.840Z,97.86
2022-09-11T23:20:39.595Z,97.93
2022-09-11T23:22:41.543Z,97.9
2022-09-11T23:24:43.453Z,97.99
2022-09-11T23:26:45.283Z,98.01
2022-09-11T23:28:46.986Z,98.07
2022-09-11T23:30:48.457Z,98.16
2022-09-11T23:32:49.968Z,98.22
2022-09-11T23:34:51.313Z,98.21
2022-09-11T23:36:52.550Z,98.18
2022-09-11T23:38:54.080Z,98.16
2022-09-11T23:40:55.926Z,98.12
2022-09-11T23:42:56.961Z,98.12
2022-09-11T23:44:57.958Z,98.06
2022-09-11T23:46:59.296Z,98.08
2022-09-11T23:49:00.852Z,98.15
2022-09-11T23:51:02.294Z,98.23
2022-09-11T23:53:03.606Z,98.21
2022-09-11T23:55:05.345Z,98.24
2022-09-11T23:57:06.470Z,98.26
2022-09-11T23:59:51.942Z,98.28
